sensor_id;sensor_type;location;lat;lon;timestamp;temperature;humidity
27900;DHT22;15243;50.726;7.080;2023-03-01T00:01:38;-1.50;99.90
27900;DHT22;15243;50.726;7.080;2023-03-01T00:04:05;-1.60;99.90
27900;DHT22;15243;50.726;7.080;2023-03-01T00:06:32;-1.60;99.90
27900;DHT22;15243;50.726;7.080;2023-03-01T00:08:59;-1.60;99.90
27900;DHT22;15243;50.726;7.080;2023-03-01T00:11:28;-1.70;99.90
27900;DHT22;15243;50.726;7.080;2023-03-01T00:13:58;-1.70;99.90
27900;DHT22;15243;50.726;7.080;2023-03-01T00:16:30;-1.80;99.90
27900;DHT22;15243;50.726;7.080;2023-03-01T00:18:58;-1.80;99.90
27900;DHT22;15243;50.726;7.080;2023-03-01T00:21:25;-1.80;99.90
27900;DHT22;15243;50.726;7.080;2023-03-01T00:23:53;-1.70;99.90
27900;DHT22;15243;50.726;7.080;2023-03-01T00:26:21;-1.80;99.90
27900;DHT22;15243;50.726;7.080;2023-03-01T00:28:50;-1.70;99.90
27900;DHT22;15243;50.726;7.080;2023-03-01T00:31:20;-1.70;99.90
27900;DHT22;15243;50.726;7.080;2023-03-01T00:33:47;-1.70;99.90
27900;DHT22;15243;50.726;7.080;2023-03-01T00:36:15;-1.70;99.90
27900;DHT22;15243;50.726;7.080;2023-03-01T00:38:44;-1.60;99.90
27900;DHT22;15243;50.726;7.080;2023-03-01T00:41:14;-1.50;99.90
27900;DHT22;15243;50.726;7.080;2023-03-01T00:43:42;-1.60;99.90
27900;DHT22;15243;50.726;7.080;2023-03-01T00:46:18;-1.80;99.90
27900;DHT22;15243;50.726;7.080;2023-03-01T00:48:45;-1.90;99.90
27900;DHT22;15243;50.726;7.080;2023-03-01T00:51:27;-1.90;99.90
27900;DHT22;15243;50.726;7.080;2023-03-01T00:53:56;-2.00;99.90
27900;DHT22;15243;50.726;7.080;2023-03-01T00:56:24;-2.00;99.90
27900;DHT22;15243;50.726;7.080;2023-03-01T00:58:51;-1.90;99.90
27900;DHT22;15243;50.726;7.080;2023-03-01T01:01:21;-2.10;99.90
27900;DHT22;15243;50.726;7.080;2023-03-01T01:03:59;-2.10;99.90
27900;DHT22;15243;50.726;7.080;2023-03-01T01:06:33;-2.20;99.90
27900;DHT22;15243;50.726;7.080;2023-03-01T01:09:00;-2.20;99.90
27900;DHT22;15243;50.726;7.080;2023-03-01T01:11:29;-2.20;99.90
27900;DHT22;15243;50.726;7.080;2023-03-01T01:13:57;-2.20;99.90
27900;DHT22;15243;50.726;7.080;2023-03-01T01:16:26;-2.20;99.90
27900;DHT22;15243;50.726;7.080;2023-03-01T01:18:54;-2.20;99.90
27900;DHT22;15243;50.726;7.080;2023-03-01T01:21:24;-2.20;99.90
27900;DHT22;15243;50.726;7.080;2023-03-01T01:23:51;-2.30;99.90
27900;DHT22;15243;50.726;7.080;2023-03-01T01:26:19;-2.20;99.90
27900;DHT22;15243;50.726;7.080;2023-03-01T01:28:47;-2.20;99.90
27900;DHT22;15243;50.726;7.080;2023-03-01T01:31:14;-2.30;99.90
27900;DHT22;15243;50.726;7.080;2023-03-01T01:33:41;-2.40;99.90
27900;DHT22;15243;50.726;7.080;2023-03-01T01:36:09;-2.20;99.90
27900;DHT22;15243;50.726;7.080;2023-03-01T01:38:37;-2.10;99.90
27900;DHT22;15243;50.726;7.080;2023-03-01T01:41:05;-2.10;99.90
27900;DHT22;15243;50.726;7.080;2023-03-01T01:43:38;-2.20;99.90
27900;DHT22;15243;50.726;7.080;2023-03-01T01:49:17;-2.30;99.90
27900;DHT22;15243;50.726;7.080;2023-03-01T01:51:47;-2.30;99.90
27900;DHT22;15243;50.726;7.080;2023-03-01T01:54:25;-2.40;99.90
27900;DHT22;15243;50.726;7.080;2023-03-01T01:57:11;-2.40;99.90
27900;DHT22;15243;50.726;7.080;2023-03-01T01:59:40;-2.40;99.90
27900;DHT22;15243;50.726;7.080;2023-03-01T02:02:09;-2.50;99.90
27900;DHT22;15243;50.726;7.080;2023-03-01T02:04:36;-2.50;99.90
27900;DHT22;15243;50.726;7.080;2023-03-01T02:07:15;-2.60;99.90
27900;DHT22;15243;50.726;7.080;2023-03-01T02:09:46;-2.60;99.90
27900;DHT22;15243;50.726;7.080;2023-03-01T02:12:15;-2.60;99.90
27900;DHT22;15243;50.726;7.080;2023-03-01T02:14:43;-2.60;99.90
27900;DHT22;15243;50.726;7.080;2023-03-01T02:17:12;-2.50;99.90
27900;DHT22;15243;50.726;7.080;2023-03-01T02:22:31;-2.60;99.90
27900;DHT22;15243;50.726;7.080;2023-03-01T02:27:53;-2.70;99.90
27900;DHT22;15243;50.726;7.080;2023-03-01T02:30:23;-2.70;99.90
27900;DHT22;15243;50.726;7.080;2023-03-01T02:32:52;-2.60;99.90
27900;DHT22;15243;50.726;7.080;2023-03-01T02:35:20;-2.60;99.90
27900;DHT22;15243;50.726;7.080;2023-03-01T02:37:48;-2.60;99.90
27900;DHT22;15243;50.726;7.080;2023-03-01T02:40:17;-2.60;99.90
27900;DHT22;15243;50.726;7.080;2023-03-01T02:42:54;-2.60;99.90
27900;DHT22;15243;50.726;7.080;2023-03-01T02:45:22;-2.60;99.90
27900;DHT22;15243;50.726;7.080;2023-03-01T02:47:50;-2.70;99.90
27900;DHT22;15243;50.726;7.080;2023-03-01T02:53:08;-2.80;99.90
27900;DHT22;15243;50.726;7.080;2023-03-01T02:55:36;-2.80;99.90
27900;DHT22;15243;50.726;7.080;2023-03-01T02:58:03;-2.90;99.90
27900;DHT22;15243;50.726;7.080;2023-03-01T03:00:44;-2.90;99.90
27900;DHT22;15243;50.726;7.080;2023-03-01T03:03:19;-2.90;99.90
27900;DHT22;15243;50.726;7.080;2023-03-01T03:05:47;-2.90;99.90
27900;DHT22;15243;50.726;7.080;2023-03-01T03:08:15;-2.90;99.90
27900;DHT22;15243;50.726;7.080;2023-03-01T03:10:51;-3.00;99.90
27900;DHT22;15243;50.726;7.080;2023-03-01T03:13:18;-3.00;99.90
27900;DHT22;15243;50.726;7.080;2023-03-01T03:15:45;-3.10;99.90
27900;DHT22;15243;50.726;7.080;2023-03-01T03:18:15;-3.00;99.90
27900;DHT22;15243;50.726;7.080;2023-03-01T03:20:43;-3.00;99.90
27900;DHT22;15243;50.726;7.080;2023-03-01T03:23:11;-3.00;99.90
27900;DHT22;15243;50.726;7.080;2023-03-01T03:25:38;-3.00;99.90
27900;DHT22;15243;50.726;7.080;2023-03-01T03:28:06;-3.00;99.90
27900;DHT22;15243;50.726;7.080;2023-03-01T03:30:41;-2.90;99.90
27900;DHT22;15243;50.726;7.080;2023-03-01T03:33:12;-3.10;99.90
27900;DHT22;15243;50.726;7.080;2023-03-01T03:35:42;-3.00;99.90
27900;DHT22;15243;50.726;7.080;2023-03-01T03:38:12;-3.00;99.90
27900;DHT22;15243;50.726;7.080;2023-03-01T03:40:48;-3.00;99.90
27900;DHT22;15243;50.726;7.080;2023-03-01T03:43:17;-3.10;99.90
27900;DHT22;15243;50.726;7.080;2023-03-01T03:45:50;-3.10;99.90
27900;DHT22;15243;50.726;7.080;2023-03-01T03:48:18;-3.00;99.90
27900;DHT22;15243;50.726;7.080;2023-03-01T03:50:53;-3.10;99.90
27900;DHT22;15243;50.726;7.080;2023-03-01T03:53:22;-3.20;99.90
27900;DHT22;15243;50.726;7.080;2023-03-01T03:55:50;-3.20;99.90
27900;DHT22;15243;50.726;7.080;2023-03-01T03:58:20;-3.30;99.90
27900;DHT22;15243;50.726;7.080;2023-03-01T04:00:50;-3.30;99.90
27900;DHT22;15243;50.726;7.080;2023-03-01T04:03:19;-3.30;99.90
27900;DHT22;15243;50.726;7.080;2023-03-01T04:05:47;-3.40;99.90
27900;DHT22;15243;50.726;7.080;2023-03-01T04:08:14;-3.30;99.90
27900;DHT22;15243;50.726;7.080;2023-03-01T04:10:43;-3.30;99.90
27900;DHT22;15243;50.726;7.080;2023-03-01T04:13:13;-3.40;99.90
27900;DHT22;15243;50.726;7.080;2023-03-01T04:15:40;-3.40;99.90
27900;DHT22;15243;50.726;7.080;2023-03-01T04:18:12;-3.40;99.90
27900;DHT22;15243;50.726;7.080;2023-03-01T04:20:39;-3.40;99.90
27900;DHT22;15243;50.726;7.080;2023-03-01T04:28:16;-3.40;99.90
27900;DHT22;15243;50.726;7.080;2023-03-01T04:30:43;-3.40;99.90
27900;DHT22;15243;50.726;7.080;2023-03-01T04:33:10;-3.40;99.90
27900;DHT22;15243;50.726;7.080;2023-03-01T04:35:38;-3.40;99.90
27900;DHT22;15243;50.726;7.080;2023-03-01T04:38:06;-3.40;99.90
27900;DHT22;15243;50.726;7.080;2023-03-01T04:40:33;-3.50;99.90
27900;DHT22;15243;50.726;7.080;2023-03-01T04:43:00;-3.50;99.90
27900;DHT22;15243;50.726;7.080;2023-03-01T04:45:27;-3.50;99.90
27900;DHT22;15243;50.726;7.080;2023-03-01T04:47:54;-3.60;99.90
27900;DHT22;15243;50.726;7.080;2023-03-01T04:50:21;-3.60;99.90
27900;DHT22;15243;50.726;7.080;2023-03-01T04:52:50;-3.60;99.90
27900;DHT22;15243;50.726;7.080;2023-03-01T04:55:17;-3.60;99.90
27900;DHT22;15243;50.726;7.080;2023-03-01T04:57:44;-3.60;99.90
27900;DHT22;15243;50.726;7.080;2023-03-01T05:00:14;-3.60;99.90
27900;DHT22;15243;50.726;7.080;2023-03-01T05:02:52;-3.70;99.90
27900;DHT22;15243;50.726;7.080;2023-03-01T05:05:31;-3.60;99.90
27900;DHT22;15243;50.726;7.080;2023-03-01T05:08:01;-3.60;99.90
27900;DHT22;15243;50.726;7.080;2023-03-01T05:10:30;-3.60;99.90
27900;DHT22;15243;50.726;7.080;2023-03-01T05:12:58;-3.60;99.90
27900;DHT22;15243;50.726;7.080;2023-03-01T05:15:26;-3.70;99.90
27900;DHT22;15243;50.726;7.080;2023-03-01T05:17:55;-3.70;99.90
27900;DHT22;15243;50.726;7.080;2023-03-01T05:20:27;-3.60;99.90
27900;DHT22;15243;50.726;7.080;2023-03-01T05:22:57;-3.70;99.90
27900;DHT22;15243;50.726;7.080;2023-03-01T05:25:25;-3.70;99.90
27900;DHT22;15243;50.726;7.080;2023-03-01T05:27:52;-3.70;99.90
27900;DHT22;15243;50.726;7.080;2023-03-01T05:30:19;-3.60;99.90
27900;DHT22;15243;50.726;7.080;2023-03-01T05:32:48;-3.70;99.90
27900;DHT22;15243;50.726;7.080;2023-03-01T05:35:17;-3.70;99.90
27900;DHT22;15243;50.726;7.080;2023-03-01T05:37:47;-3.80;99.90
27900;DHT22;15243;50.726;7.080;2023-03-01T05:40:17;-3.80;99.90
27900;DHT22;15243;50.726;7.080;2023-03-01T05:42:46;-3.80;99.90
27900;DHT22;15243;50.726;7.080;2023-03-01T05:45:14;-3.70;99.90
27900;DHT22;15243;50.726;7.080;2023-03-01T05:47:42;-3.70;99.90
27900;DHT22;15243;50.726;7.080;2023-03-01T05:50:23;-3.70;99.90
27900;DHT22;15243;50.726;7.080;2023-03-01T05:52:58;-3.80;99.90
27900;DHT22;15243;50.726;7.080;2023-03-01T05:55:26;-3.90;99.90
27900;DHT22;15243;50.726;7.080;2023-03-01T05:57:54;-3.90;99.90
27900;DHT22;15243;50.726;7.080;2023-03-01T06:00:22;-3.90;99.90
27900;DHT22;15243;50.726;7.080;2023-03-01T06:02:49;-3.90;99.90
27900;DHT22;15243;50.726;7.080;2023-03-01T06:05:16;-3.90;99.90
27900;DHT22;15243;50.726;7.080;2023-03-01T06:07:43;-3.90;99.90
27900;DHT22;15243;50.726;7.080;2023-03-01T06:10:12;-3.90;99.90
27900;DHT22;15243;50.726;7.080;2023-03-01T06:12:41;-3.90;99.90
27900;DHT22;15243;50.726;7.080;2023-03-01T06:15:10;-4.00;99.90
27900;DHT22;15243;50.726;7.080;2023-03-01T06:17:40;-4.00;99.90
27900;DHT22;15243;50.726;7.080;2023-03-01T06:20:16;-3.80;99.90
27900;DHT22;15243;50.726;7.080;2023-03-01T06:22:44;-3.80;99.90
27900;DHT22;15243;50.726;7.080;2023-03-01T06:25:11;-3.80;99.90
27900;DHT22;15243;50.726;7.080;2023-03-01T06:27:39;-3.90;99.90
27900;DHT22;15243;50.726;7.080;2023-03-01T06:30:07;-3.80;99.90
27900;DHT22;15243;50.726;7.080;2023-03-01T06:32:34;-3.90;99.90
27900;DHT22;15243;50.726;7.080;2023-03-01T06:35:01;-3.90;99.90
27900;DHT22;15243;50.726;7.080;2023-03-01T06:37:28;-4.00;99.90
27900;DHT22;15243;50.726;7.080;2023-03-01T06:39:54;-3.90;99.90
27900;DHT22;15243;50.726;7.080;2023-03-01T06:42:21;-3.80;99.90
27900;DHT22;15243;50.726;7.080;2023-03-01T06:44:48;-3.80;99.90
27900;DHT22;15243;50.726;7.080;2023-03-01T06:47:15;-3.70;99.90
27900;DHT22;15243;50.726;7.080;2023-03-01T06:49:42;-3.90;99.90
27900;DHT22;15243;50.726;7.080;2023-03-01T06:52:09;-4.00;99.90
27900;DHT22;15243;50.726;7.080;2023-03-01T06:54:35;-3.90;99.90
27900;DHT22;15243;50.726;7.080;2023-03-01T06:57:02;-3.80;99.90
27900;DHT22;15243;50.726;7.080;2023-03-01T06:59:29;-3.80;99.90
27900;DHT22;15243;50.726;7.080;2023-03-01T07:01:56;-3.90;99.90
27900;DHT22;15243;50.726;7.080;2023-03-01T07:04:23;-3.90;99.90
27900;DHT22;15243;50.726;7.080;2023-03-01T07:06:49;-3.80;99.90
27900;DHT22;15243;50.726;7.080;2023-03-01T07:09:23;-3.80;99.90
27900;DHT22;15243;50.726;7.080;2023-03-01T07:11:50;-3.80;99.90
27900;DHT22;15243;50.726;7.080;2023-03-01T07:14:17;-3.70;99.90
27900;DHT22;15243;50.726;7.080;2023-03-01T07:16:44;-3.60;99.90
27900;DHT22;15243;50.726;7.080;2023-03-01T07:19:11;-3.60;99.90
27900;DHT22;15243;50.726;7.080;2023-03-01T07:21:37;-3.60;99.90
27900;DHT22;15243;50.726;7.080;2023-03-01T07:24:08;-3.50;99.90
27900;DHT22;15243;50.726;7.080;2023-03-01T07:26:35;-3.40;99.90
27900;DHT22;15243;50.726;7.080;2023-03-01T07:29:03;-3.30;99.90
27900;DHT22;15243;50.726;7.080;2023-03-01T07:31:31;-3.30;99.90
27900;DHT22;15243;50.726;7.080;2023-03-01T07:33:58;-3.20;99.90
27900;DHT22;15243;50.726;7.080;2023-03-01T07:36:25;-3.10;99.90
27900;DHT22;15243;50.726;7.080;2023-03-01T07:38:52;-2.90;99.90
27900;DHT22;15243;50.726;7.080;2023-03-01T07:41:19;-2.70;99.90
27900;DHT22;15243;50.726;7.080;2023-03-01T07:43:45;-2.60;99.90
27900;DHT22;15243;50.726;7.080;2023-03-01T07:46:12;-2.60;99.90
27900;DHT22;15243;50.726;7.080;2023-03-01T07:48:39;-2.50;99.90
27900;DHT22;15243;50.726;7.080;2023-03-01T07:51:07;-2.40;99.90
27900;DHT22;15243;50.726;7.080;2023-03-01T07:53:34;-2.50;99.90
27900;DHT22;15243;50.726;7.080;2023-03-01T07:56:04;-2.20;99.90
27900;DHT22;15243;50.726;7.080;2023-03-01T07:58:33;-2.30;99.90
27900;DHT22;15243;50.726;7.080;2023-03-01T08:01:07;-2.30;99.90
27900;DHT22;15243;50.726;7.080;2023-03-01T08:03:35;-2.30;99.90
27900;DHT22;15243;50.726;7.080;2023-03-01T08:06:04;-2.20;99.90
27900;DHT22;15243;50.726;7.080;2023-03-01T08:08:32;-2.10;99.90
27900;DHT22;15243;50.726;7.080;2023-03-01T08:11:00;-2.00;99.90
27900;DHT22;15243;50.726;7.080;2023-03-01T08:13:28;-1.70;99.90
27900;DHT22;15243;50.726;7.080;2023-03-01T08:16:04;-1.50;99.90
27900;DHT22;15243;50.726;7.080;2023-03-01T08:18:31;-1.30;99.90
27900;DHT22;15243;50.726;7.080;2023-03-01T08:21:09;-1.20;99.90
27900;DHT22;15243;50.726;7.080;2023-03-01T08:23:36;-1.10;99.90
27900;DHT22;15243;50.726;7.080;2023-03-01T08:26:07;-1.10;99.90
27900;DHT22;15243;50.726;7.080;2023-03-01T08:28:35;-1.10;99.90
27900;DHT22;15243;50.726;7.080;2023-03-01T08:31:02;-1.10;99.90
27900;DHT22;15243;50.726;7.080;2023-03-01T08:33:29;-1.00;99.90
27900;DHT22;15243;50.726;7.080;2023-03-01T08:36:04;-0.90;99.90
27900;DHT22;15243;50.726;7.080;2023-03-01T08:38:34;-0.70;99.90
27900;DHT22;15243;50.726;7.080;2023-03-01T08:41:02;-0.60;99.90
27900;DHT22;15243;50.726;7.080;2023-03-01T08:43:29;-0.50;99.90
27900;DHT22;15243;50.726;7.080;2023-03-01T08:45:56;-0.40;99.90
27900;DHT22;15243;50.726;7.080;2023-03-01T08:48:23;-0.30;99.90
27900;DHT22;15243;50.726;7.080;2023-03-01T08:50:51;-0.30;99.90
27900;DHT22;15243;50.726;7.080;2023-03-01T08:53:17;-0.20;99.90
27900;DHT22;15243;50.726;7.080;2023-03-01T08:55:44;0.00;99.90
27900;DHT22;15243;50.726;7.080;2023-03-01T08:58:11;0.10;99.90
27900;DHT22;15243;50.726;7.080;2023-03-01T09:00:38;0.30;99.90
27900;DHT22;15243;50.726;7.080;2023-03-01T09:03:05;0.50;99.90
27900;DHT22;15243;50.726;7.080;2023-03-01T09:05:33;0.70;99.90
27900;DHT22;15243;50.726;7.080;2023-03-01T09:08:00;1.00;99.30
27900;DHT22;15243;50.726;7.080;2023-03-01T09:10:27;1.20;99.90
27900;DHT22;15243;50.726;7.080;2023-03-01T09:12:54;1.40;99.90
27900;DHT22;15243;50.726;7.080;2023-03-01T09:15:21;1.50;86.90
27900;DHT22;15243;50.726;7.080;2023-03-01T09:17:48;1.80;84.70
27900;DHT22;15243;50.726;7.080;2023-03-01T09:20:15;1.90;67.20
27900;DHT22;15243;50.726;7.080;2023-03-01T09:22:42;1.90;73.60
27900;DHT22;15243;50.726;7.080;2023-03-01T09:25:10;1.90;82.70
27900;DHT22;15243;50.726;7.080;2023-03-01T09:27:37;2.10;51.40
27900;DHT22;15243;50.726;7.080;2023-03-01T09:30:04;2.10;69.10
27900;DHT22;15243;50.726;7.080;2023-03-01T09:32:31;2.30;62.70
27900;DHT22;15243;50.726;7.080;2023-03-01T09:34:58;2.60;46.50
27900;DHT22;15243;50.726;7.080;2023-03-01T09:37:32;2.50;43.70
27900;DHT22;15243;50.726;7.080;2023-03-01T09:40:00;2.80;27.40
27900;DHT22;15243;50.726;7.080;2023-03-01T09:42:28;2.90;18.40
27900;DHT22;15243;50.726;7.080;2023-03-01T09:45:15;2.80;37.20
27900;DHT22;15243;50.726;7.080;2023-03-01T09:47:46;3.10;35.60
27900;DHT22;15243;50.726;7.080;2023-03-01T09:50:18;3.30;7.40
27900;DHT22;15243;50.726;7.080;2023-03-01T09:53:06;3.30;18.80
27900;DHT22;15243;50.726;7.080;2023-03-01T09:55:41;3.50;10.10
27900;DHT22;15243;50.726;7.080;2023-03-01T10:03:49;3.80;1.00
27900;DHT22;15243;50.726;7.080;2023-03-01T10:06:21;3.80;1.00
27900;DHT22;15243;50.726;7.080;2023-03-01T10:09:27;4.00;1.00
27900;DHT22;15243;50.726;7.080;2023-03-01T10:11:56;4.10;1.00
27900;DHT22;15243;50.726;7.080;2023-03-01T10:19:49;4.60;1.00
27900;DHT22;15243;50.726;7.080;2023-03-01T10:22:21;4.80;1.00
27900;DHT22;15243;50.726;7.080;2023-03-01T10:24:48;4.90;1.00
27900;DHT22;15243;50.726;7.080;2023-03-01T10:30:10;4.80;1.00
27900;DHT22;15243;50.726;7.080;2023-03-01T10:32:40;4.80;1.00
27900;DHT22;15243;50.726;7.080;2023-03-01T10:35:25;5.00;1.00
27900;DHT22;15243;50.726;7.080;2023-03-01T10:40:24;5.30;1.00
27900;DHT22;15243;50.726;7.080;2023-03-01T10:42:51;5.50;1.00
27900;DHT22;15243;50.726;7.080;2023-03-01T10:45:32;5.80;1.00
27900;DHT22;15243;50.726;7.080;2023-03-01T10:48:20;5.80;1.00
27900;DHT22;15243;50.726;7.080;2023-03-01T10:51:05;5.80;1.00
27900;DHT22;15243;50.726;7.080;2023-03-01T10:53:48;6.00;1.00
27900;DHT22;15243;50.726;7.080;2023-03-01T10:56:15;6.00;1.00
27900;DHT22;15243;50.726;7.080;2023-03-01T10:58:59;6.10;1.00
27900;DHT22;15243;50.726;7.080;2023-03-01T11:01:28;6.00;1.00
27900;DHT22;15243;50.726;7.080;2023-03-01T11:04:11;5.90;1.00
27900;DHT22;15243;50.726;7.080;2023-03-01T11:06:40;5.90;1.00
27900;DHT22;15243;50.726;7.080;2023-03-01T11:09:22;5.60;1.00
27900;DHT22;15243;50.726;7.080;2023-03-01T11:11:57;5.60;1.00
27900;DHT22;15243;50.726;7.080;2023-03-01T11:14:32;5.70;1.00
27900;DHT22;15243;50.726;7.080;2023-03-01T11:19:29;6.30;1.00
27900;DHT22;15243;50.726;7.080;2023-03-01T11:22:17;6.40;1.00
27900;DHT22;15243;50.726;7.080;2023-03-01T11:24:54;6.60;1.00
27900;DHT22;15243;50.726;7.080;2023-03-01T11:27:39;6.70;1.00
27900;DHT22;15243;50.726;7.080;2023-03-01T11:30:23;6.60;1.00
27900;DHT22;15243;50.726;7.080;2023-03-01T11:33:04;6.60;1.00
27900;DHT22;15243;50.726;7.080;2023-03-01T11:35:40;7.10;1.00
27900;DHT22;15243;50.726;7.080;2023-03-01T11:38:22;7.40;1.00
27900;DHT22;15243;50.726;7.080;2023-03-01T11:43:57;7.60;99.90
27900;DHT22;15243;50.726;7.080;2023-03-01T12:08:03;7.70;99.90
27900;DHT22;15243;50.726;7.080;2023-03-01T12:13:54;8.30;99.90
27900;DHT22;15243;50.726;7.080;2023-03-01T12:16:26;8.20;99.90
27900;DHT22;15243;50.726;7.080;2023-03-01T12:34:23;8.40;99.90
27900;DHT22;15243;50.726;7.080;2023-03-01T12:50:47;8.30;99.90
27900;DHT22;15243;50.726;7.080;2023-03-01T12:53:28;8.10;99.90
27900;DHT22;15243;50.726;7.080;2023-03-01T12:56:07;8.40;99.90
27900;DHT22;15243;50.726;7.080;2023-03-01T12:59:02;8.80;99.90
27900;DHT22;15243;50.726;7.080;2023-03-01T13:01:45;8.60;99.90
27900;DHT22;15243;50.726;7.080;2023-03-01T13:13:02;9.60;19.70
27900;DHT22;15243;50.726;7.080;2023-03-01T13:15:32;9.80;1.00
27900;DHT22;15243;50.726;7.080;2023-03-01T13:23:07;10.20;99.90
27900;DHT22;15243;50.726;7.080;2023-03-01T13:25:35;10.00;1.00
27900;DHT22;15243;50.726;7.080;2023-03-01T13:28:49;9.80;1.00
27900;DHT22;15243;50.726;7.080;2023-03-01T13:33:48;10.10;99.90
27900;DHT22;15243;50.726;7.080;2023-03-01T13:38:58;9.50;99.90
27900;DHT22;15243;50.726;7.080;2023-03-01T13:46:59;11.40;99.90
27900;DHT22;15243;50.726;7.080;2023-03-01T13:49:56;11.90;99.90
27900;DHT22;15243;50.726;7.080;2023-03-01T13:54:53;12.40;99.90
27900;DHT22;15243;50.726;7.080;2023-03-01T13:57:26;12.20;99.90
27900;DHT22;15243;50.726;7.080;2023-03-01T13:59:55;12.30;99.90
27900;DHT22;15243;50.726;7.080;2023-03-01T14:02:22;12.90;99.90
27900;DHT22;15243;50.726;7.080;2023-03-01T14:04:57;13.60;99.90
27900;DHT22;15243;50.726;7.080;2023-03-01T14:07:26;14.40;99.90
27900;DHT22;15243;50.726;7.080;2023-03-01T14:10:03;14.10;94.80
27900;DHT22;15243;50.726;7.080;2023-03-01T14:13:30;13.80;35.90
27900;DHT22;15243;50.726;7.080;2023-03-01T14:16:16;13.40;30.90
27900;DHT22;15243;50.726;7.080;2023-03-01T14:21:19;14.10;1.00
27900;DHT22;15243;50.726;7.080;2023-03-01T14:23:46;14.00;1.00
27900;DHT22;15243;50.726;7.080;2023-03-01T14:26:13;14.00;1.00
27900;DHT22;15243;50.726;7.080;2023-03-01T14:28:47;14.70;1.00
27900;DHT22;15243;50.726;7.080;2023-03-01T14:31:39;12.80;1.00
27900;DHT22;15243;50.726;7.080;2023-03-01T14:34:24;13.90;1.00
27900;DHT22;15243;50.726;7.080;2023-03-01T14:36:51;15.00;1.00
27900;DHT22;15243;50.726;7.080;2023-03-01T14:39:24;15.00;1.00
27900;DHT22;15243;50.726;7.080;2023-03-01T14:41:53;15.30;1.00
27900;DHT22;15243;50.726;7.080;2023-03-01T14:44:22;15.30;1.00
27900;DHT22;15243;50.726;7.080;2023-03-01T14:46:55;15.80;1.00
27900;DHT22;15243;50.726;7.080;2023-03-01T14:49:25;16.30;1.00
27900;DHT22;15243;50.726;7.080;2023-03-01T14:52:24;15.60;1.00
27900;DHT22;15243;50.726;7.080;2023-03-01T14:55:04;15.70;1.00
27900;DHT22;15243;50.726;7.080;2023-03-01T14:57:35;15.20;1.00
27900;DHT22;15243;50.726;7.080;2023-03-01T15:00:07;14.40;1.00
27900;DHT22;15243;50.726;7.080;2023-03-01T15:02:37;15.60;1.00
27900;DHT22;15243;50.726;7.080;2023-03-01T15:05:06;17.00;1.00
27900;DHT22;15243;50.726;7.080;2023-03-01T15:07:38;16.90;1.00
27900;DHT22;15243;50.726;7.080;2023-03-01T15:10:24;17.30;1.00
27900;DHT22;15243;50.726;7.080;2023-03-01T15:12:51;16.90;1.00
27900;DHT22;15243;50.726;7.080;2023-03-01T15:17:59;18.20;1.00
27900;DHT22;15243;50.726;7.080;2023-03-01T15:20:28;17.90;1.00
27900;DHT22;15243;50.726;7.080;2023-03-01T15:22:57;17.80;1.00
27900;DHT22;15243;50.726;7.080;2023-03-01T15:25:27;17.20;1.00
27900;DHT22;15243;50.726;7.080;2023-03-01T15:27:57;16.80;1.00
27900;DHT22;15243;50.726;7.080;2023-03-01T15:30:34;16.40;1.00
27900;DHT22;15243;50.726;7.080;2023-03-01T15:33:31;16.30;1.00
27900;DHT22;15243;50.726;7.080;2023-03-01T15:36:02;17.40;1.00
27900;DHT22;15243;50.726;7.080;2023-03-01T15:38:56;16.50;99.90
27900;DHT22;15243;50.726;7.080;2023-03-01T15:41:33;16.80;1.00
27900;DHT22;15243;50.726;7.080;2023-03-01T15:44:23;17.20;1.00
27900;DHT22;15243;50.726;7.080;2023-03-01T15:46:55;17.30;1.00
27900;DHT22;15243;50.726;7.080;2023-03-01T15:49:36;16.70;1.00
27900;DHT22;15243;50.726;7.080;2023-03-01T15:55:04;15.60;1.00
27900;DHT22;15243;50.726;7.080;2023-03-01T15:57:31;13.90;1.00
27900;DHT22;15243;50.726;7.080;2023-03-01T15:59:59;13.20;99.90
27900;DHT22;15243;50.726;7.080;2023-03-01T16:02:25;13.10;99.90
27900;DHT22;15243;50.726;7.080;2023-03-01T16:04:52;12.90;99.90
27900;DHT22;15243;50.726;7.080;2023-03-01T16:07:20;12.80;99.90
27900;DHT22;15243;50.726;7.080;2023-03-01T16:09:47;12.30;99.90
27900;DHT22;15243;50.726;7.080;2023-03-01T16:12:15;12.10;99.90
27900;DHT22;15243;50.726;7.080;2023-03-01T16:14:43;12.00;99.90
27900;DHT22;15243;50.726;7.080;2023-03-01T16:17:09;11.80;99.90
27900;DHT22;15243;50.726;7.080;2023-03-01T16:19:39;11.10;99.90
27900;DHT22;15243;50.726;7.080;2023-03-01T16:22:09;10.80;99.90
27900;DHT22;15243;50.726;7.080;2023-03-01T16:24:36;10.50;1.00
27900;DHT22;15243;50.726;7.080;2023-03-01T16:27:03;10.00;99.90
27900;DHT22;15243;50.726;7.080;2023-03-01T16:29:30;9.80;99.90
27900;DHT22;15243;50.726;7.080;2023-03-01T16:32:00;9.70;99.90
27900;DHT22;15243;50.726;7.080;2023-03-01T16:34:28;9.20;1.00
27900;DHT22;15243;50.726;7.080;2023-03-01T16:36:55;9.10;20.50
27900;DHT22;15243;50.726;7.080;2023-03-01T16:39:22;9.10;39.70
27900;DHT22;15243;50.726;7.080;2023-03-01T16:41:49;9.00;74.90
27900;DHT22;15243;50.726;7.080;2023-03-01T16:44:15;8.80;99.90
27900;DHT22;15243;50.726;7.080;2023-03-01T16:46:42;8.70;99.90
27900;DHT22;15243;50.726;7.080;2023-03-01T16:49:10;8.70;99.90
27900;DHT22;15243;50.726;7.080;2023-03-01T16:51:36;8.60;99.90
27900;DHT22;15243;50.726;7.080;2023-03-01T16:54:03;8.50;99.90
27900;DHT22;15243;50.726;7.080;2023-03-01T16:56:31;8.30;99.90
27900;DHT22;15243;50.726;7.080;2023-03-01T16:59:01;8.10;99.90
27900;DHT22;15243;50.726;7.080;2023-03-01T17:01:31;8.00;99.90
27900;DHT22;15243;50.726;7.080;2023-03-01T17:04:04;7.90;99.90
27900;DHT22;15243;50.726;7.080;2023-03-01T17:06:31;7.60;99.90
27900;DHT22;15243;50.726;7.080;2023-03-01T17:08:59;7.50;99.90
27900;DHT22;15243;50.726;7.080;2023-03-01T17:11:26;7.50;99.90
27900;DHT22;15243;50.726;7.080;2023-03-01T17:13:53;7.50;99.90
27900;DHT22;15243;50.726;7.080;2023-03-01T17:16:20;7.40;99.90
27900;DHT22;15243;50.726;7.080;2023-03-01T17:18:48;7.30;99.90
27900;DHT22;15243;50.726;7.080;2023-03-01T17:21:16;7.30;99.90
27900;DHT22;15243;50.726;7.080;2023-03-01T17:23:44;7.10;99.90
27900;DHT22;15243;50.726;7.080;2023-03-01T17:26:11;7.10;99.90
27900;DHT22;15243;50.726;7.080;2023-03-01T17:28:39;7.00;99.90
27900;DHT22;15243;50.726;7.080;2023-03-01T17:31:06;6.90;99.90
27900;DHT22;15243;50.726;7.080;2023-03-01T17:33:33;6.80;99.90
27900;DHT22;15243;50.726;7.080;2023-03-01T17:36:00;6.60;99.90
27900;DHT22;15243;50.726;7.080;2023-03-01T17:40:58;6.50;99.90
27900;DHT22;15243;50.726;7.080;2023-03-01T17:43:26;6.50;99.90
27900;DHT22;15243;50.726;7.080;2023-03-01T17:45:53;6.40;99.90
27900;DHT22;15243;50.726;7.080;2023-03-01T17:48:20;6.40;99.90
27900;DHT22;15243;50.726;7.080;2023-03-01T17:50:47;6.30;99.90
27900;DHT22;15243;50.726;7.080;2023-03-01T17:53:15;6.30;99.90
27900;DHT22;15243;50.726;7.080;2023-03-01T17:55:42;6.20;99.90
27900;DHT22;15243;50.726;7.080;2023-03-01T17:58:12;6.10;1.00
27900;DHT22;15243;50.726;7.080;2023-03-01T18:00:40;6.00;1.00
27900;DHT22;15243;50.726;7.080;2023-03-01T18:03:07;5.80;1.00
27900;DHT22;15243;50.726;7.080;2023-03-01T18:05:35;5.70;1.00
27900;DHT22;15243;50.726;7.080;2023-03-01T18:08:03;5.60;1.00
27900;DHT22;15243;50.726;7.080;2023-03-01T18:10:31;5.50;1.00